Time;durP1;ratioP1;P1;durP2;ratioP2;P2;SDS_P1;SDS_P2;PMS_P1;PMS_P2;Temp;Humidity;BMP_temperature;BMP_pressure;BME280_temperature;BME280_humidity;BME280_pressure;Samples;Min_cycle;Max_cycle;Signal;HPM_P1;HPM_P2
2021/01/24 00:00:46;;;;;;;;;;;;;;;;;;5046712;28;19925;-76
2021/01/24 00:03:12;;;;;;;;;;;;;;;;;;5049676;28;19932;-76
2021/01/24 00:05:38;;;;;;;;;;;;;;;;;;5048776;28;19925;-77
2021/01/24 00:08:04;;;;;;;;;;;;;;;;;;5065860;28;19925;-77
2021/01/24 00:10:30;;;;;;;;;;;;;;;;;;5053093;28;19925;-78
2021/01/24 00:12:56;;;;;;;;;;;;;;;;;;5046231;28;20601;-77
2021/01/24 00:15:22;;;;;;;;;;;;;;;;;;5049680;28;19925;-76
2021/01/24 00:17:48;;;;;;;;;;;;;;;;;;5046411;28;19925;-76
2021/01/24 00:20:14;;;;;;;;;;;;;;;;;;5049901;28;20267;-76
2021/01/24 00:22:40;;;;;;;;;;;;;;;;;;5052182;28;19933;-77
2021/01/24 00:25:06;;;;;;;;;;;;;;;;;;5048362;28;19932;-77
2021/01/24 00:27:32;;;;;;;;;;;;;;;;;;5047024;28;19944;-76
2021/01/24 00:29:58;;;;;;;;;;;;;;;;;;5046856;28;19925;-77
2021/01/24 00:32:23;;;;;;;;;;;;;;;;;;5049398;28;19925;-77
2021/01/24 00:34:49;;;;;;;;;;;;;;;;;;5046186;28;19929;-77
2021/01/24 00:37:15;;;;;;;;;;;;;;;;;;5049246;28;19986;-77
2021/01/24 00:39:41;;;;;;;;;;;;;;;;;;5047117;28;19931;-76
2021/01/24 00:42:07;;;;;;;;;;;;;;;;;;5040740;28;21195;-76
2021/01/24 00:44:33;;;;;;;;;;;;;;;;;;5047989;28;19924;-76
2021/01/24 00:46:59;;;;;;;;;;;;;;;;;;5065493;28;19932;-78
2021/01/24 00:49:25;;;;;;;;;;;;;;;;;;5069340;28;19925;-77
2021/01/24 00:51:51;;;;;;;;;;;;;;;;;;5065771;28;19924;-77
2021/01/24 00:54:17;;;;;;;;;;;;;;;;;;5069218;28;19925;-76
2021/01/24 00:56:43;;;;;;;;;;;;;;;;;;5066244;28;19928;-76
2021/01/24 00:59:09;;;;;;;;;;;;;;;;;;5057668;28;19924;-77
2021/01/24 01:01:34;;;;;;;;;;;;;;;;;;5067539;28;19931;-77
2021/01/24 01:04:00;;;;;;;;;;;;;;;;;;5066538;28;19974;-77
2021/01/24 01:06:26;;;;;;;;;;;;;;;;;;5068889;28;19924;-77
2021/01/24 01:08:53;;;;;;;;;;;;;;;;;;5064036;28;19924;-77
2021/01/24 01:11:19;;;;;;;;;;;;;;;;;;5068735;28;20020;-77
2021/01/24 01:13:44;;;;;;;;;;;;;;;;;;5047016;28;19925;-79
2021/01/24 01:16:10;;;;;;;;;;;;;;;;;;5048166;28;19924;-78
2021/01/24 01:18:36;;;;;;;;;;;;;;;;;;5047046;28;19929;-78
2021/01/24 01:21:02;;;;;;;;;;;;;;;;;;5046642;28;19924;-78
2021/01/24 01:23:28;;;;;;;;;;;;;;;;;;5048526;28;19932;-77
2021/01/24 01:25:54;;;;;;;;;;;;;;;;;;5045590;28;20364;-78
2021/01/24 01:28:20;;;;;;;;;;;;;;;;;;5047889;28;20373;-77
2021/01/24 01:30:46;;;;;;;;;;;;;;;;;;5036827;28;19978;-77
2021/01/24 01:33:12;;;;;;;;;;;;;;;;;;5048387;28;19924;-78
2021/01/24 01:35:38;;;;;;;;;;;;;;;;;;5046749;28;19929;-77
2021/01/24 01:38:04;;;;;;;;;;;;;;;;;;5046818;28;19925;-77
2021/01/24 01:40:30;;;;;;;;;;;;;;;;;;5047819;28;19929;-77
2021/01/24 01:42:56;;;;;;;;;;;;;;;;;;5045524;28;19925;-76
2021/01/24 01:45:22;;;;;;;;;;;;;;;;;;5055072;28;19925;-76
2021/01/24 01:47:48;;;;;;;;;;;;;;;;;;5046623;28;19924;-76
2021/01/24 01:50:14;;;;;;;;;;;;;;;;;;5048511;28;19994;-77
2021/01/24 01:52:40;;;;;;;;;;;;;;;;;;5046325;28;19929;-77
2021/01/24 01:55:06;;;;;;;;;;;;;;;;;;5046926;28;19924;-77
2021/01/24 01:57:32;;;;;;;;;;;;;;;;;;5047677;28;19924;-77
2021/01/24 01:59:57;;;;;;;;;;;;;;;;;;5047419;28;19932;-78
2021/01/24 02:02:23;;;;;;;;;;;;;;;;;;5054798;28;19924;-76
2021/01/24 02:04:49;;;;;;;;;;;;;;;;;;5066136;28;19928;-77
2021/01/24 02:07:15;;;;;;;;;;;;;;;;;;5062138;28;19975;-78
2021/01/24 02:09:41;;;;;;;;;;;;;;;;;;5065134;28;19931;-78
2021/01/24 02:12:07;;;;;;;;;;;;;;;;;;5066947;28;19935;-78
2021/01/24 02:14:33;;;;;;;;;;;;;;;;;;5066519;28;19925;-78
2021/01/24 02:16:59;;;;;;;;;;;;;;;;;;5054684;28;19940;-78
2021/01/24 02:19:25;;;;;;;;;;;;;;;;;;5067425;28;20301;-76
2021/01/24 02:21:51;;;;;;;;;;;;;;;;;;5064312;28;19928;-78
2021/01/24 02:24:17;;;;;;;;;;;;;;;;;;5065656;28;20409;-76
2021/01/24 02:26:43;;;;;;;;;;;;;;;;;;5064575;28;19925;-77
2021/01/24 02:29:09;;;;;;;;;;;;;;;;;;5066889;28;19924;-78
2021/01/24 02:31:35;;;;;;;;;;;;;;;;;;5061902;28;19928;-77
2021/01/24 02:34:01;;;;;;;;;;;;;;;;;;5041080;28;19925;-78
2021/01/24 02:36:27;;;;;;;;;;;;;;;;;;5047620;28;19978;-78
2021/01/24 02:38:53;;;;;;;;;;;;;;;;;;5043989;28;19948;-77
2021/01/24 02:41:19;;;;;;;;;;;;;;;;;;5047135;28;19940;-78
2021/01/24 02:43:45;;;;;;;;;;;;;;;;;;5059091;28;19925;-77
2021/01/24 02:46:11;;;;;;;;;;;;;;;;;;5067387;28;19995;-77
2021/01/24 02:48:37;;;;;;;;;;;;;;;;;;5040205;28;19925;-77
2021/01/24 02:51:03;;;;;;;;;;;;;;;;;;5046076;28;19955;-78
2021/01/24 02:53:29;;;;;;;;;;;;;;;;;;5047427;28;19948;-77
2021/01/24 02:55:55;;;;;;;;;;;;;;;;;;5044718;28;19925;-76
2021/01/24 02:58:21;;;;;;;;;;;;;;;;;;5047348;28;19929;-77
2021/01/24 03:00:46;;;;;;;;;;;;;;;;;;5043983;28;19925;-78
2021/01/24 03:03:12;;;;;;;;;;;;;;;;;;5038607;28;19932;-77
2021/01/24 03:05:38;;;;;;;;;;;;;;;;;;5045230;28;19925;-77
2021/01/24 03:08:04;;;;;;;;;;;;;;;;;;5045279;28;20338;-76
2021/01/24 03:10:30;;;;;;;;;;;;;;;;;;5046476;28;19962;-79
2021/01/24 03:12:56;;;;;;;;;;;;;;;;;;5043976;28;19932;-77
2021/01/24 03:15:22;;;;;;;;;;;;;;;;;;5047405;28;19932;-78
2021/01/24 03:17:48;;;;;;;;;;;;;;;;;;5044584;28;19982;-77
2021/01/24 03:20:14;;;;;;;;;;;;;;;;;;5046770;28;19924;-76
2021/01/24 03:22:40;;;;;;;;;;;;;;;;;;5067295;28;19928;-78
2021/01/24 03:25:06;;;;;;;;;;;;;;;;;;5085248;28;19924;-77
2021/01/24 03:27:32;;;;;;;;;;;;;;;;;;5085738;28;19924;-77
2021/01/24 03:29:57;;;;;;;;;;;;;;;;;;5084275;28;19931;-77
2021/01/24 03:32:24;;;;;;;;;;;;;;;;;;5085641;28;19925;-76
2021/01/24 03:34:50;;;;;;;;;;;;;;;;;;5052916;28;20301;-77
2021/01/24 03:37:15;;;;;;;;;;;;;;;;;;5048122;28;19974;-76
2021/01/24 03:39:41;;;;;;;;;;;;;;;;;;5046454;28;20289;-76
2021/01/24 03:42:07;;;;;;;;;;;;;;;;;;5062170;28;19928;-77
2021/01/24 03:44:33;;;;;;;;;;;;;;;;;;5067082;28;20377;-77
2021/01/24 03:46:59;;;;;;;;;;;;;;;;;;5065506;28;19935;-77
2021/01/24 03:49:25;;;;;;;;;;;;;;;;;;5056458;28;20384;-76
2021/01/24 03:51:51;;;;;;;;;;;;;;;;;;5064610;28;19979;-76
2021/01/24 03:54:17;;;;;;;;;;;;;;;;;;5066983;28;19939;-78
2021/01/24 03:56:43;;;;;;;;;;;;;;;;;;5064186;28;19939;-77
2021/01/24 03:59:09;;;;;;;;;;;;;;;;;;5066408;28;19939;-77
2021/01/24 04:01:35;;;;;;;;;;;;;;;;;;5064601;28;19924;-79
2021/01/24 04:04:01;;;;;;;;;;;;;;;;;;5065405;28;19935;-80
2021/01/24 04:06:27;;;;;;;;;;;;;;;;;;5055013;28;20042;-79
2021/01/24 04:08:53;;;;;;;;;;;;;;;;;;5067002;28;19924;-77
2021/01/24 04:11:19;;;;;;;;;;;;;;;;;;5077262;28;19925;-77
2021/01/24 04:13:45;;;;;;;;;;;;;;;;;;5066072;28;20286;-77
2021/01/24 04:16:11;;;;;;;;;;;;;;;;;;5066780;28;19947;-77
2021/01/24 04:18:37;;;;;;;;;;;;;;;;;;5059365;28;20329;-78
2021/01/24 04:21:03;;;;;;;;;;;;;;;;;;5054078;28;19933;-78
2021/01/24 04:23:29;;;;;;;;;;;;;;;;;;5061802;28;19924;-77
2021/01/24 04:25:54;;;;;;;;;;;;;;;;;;5047959;28;19940;-78
2021/01/24 04:28:20;;;;;;;;;;;;;;;;;;5050896;28;19947;-78
2021/01/24 04:30:46;;;;;;;;;;;;;;;;;;5046801;28;19932;-77
2021/01/24 04:33:12;;;;;;;;;;;;;;;;;;5047600;28;19932;-78
2021/01/24 04:35:38;;;;;;;;;;;;;;;;;;5046194;28;20267;-77
2021/01/24 04:38:04;;;;;;;;;;;;;;;;;;5044544;28;19924;-78
2021/01/24 04:40:30;;;;;;;;;;;;;;;;;;5067350;28;20328;-76
2021/01/24 04:42:56;;;;;;;;;;;;;;;;;;5067547;28;19943;-77
2021/01/24 04:45:22;;;;;;;;;;;;;;;;;;5071232;28;20304;-78
2021/01/24 04:47:48;;;;;;;;;;;;;;;;;;5068896;28;19932;-78
2021/01/24 04:50:14;;;;;;;;;;;;;;;;;;5071082;28;20373;-78
2021/01/24 04:52:40;;;;;;;;;;;;;;;;;;5059624;28;19929;-76
2021/01/24 04:55:06;;;;;;;;;;;;;;;;;;5070347;28;19947;-77
2021/01/24 04:57:32;;;;;;;;;;;;;;;;;;5069634;28;19978;-77
2021/01/24 04:59:58;;;;;;;;;;;;;;;;;;5068006;28;19932;-78
2021/01/24 05:02:24;;;;;;;;;;;;;;;;;;5066599;28;20397;-78
2021/01/24 05:04:50;;;;;;;;;;;;;;;;;;5065970;28;19925;-78
2021/01/24 05:07:16;;;;;;;;;;;;;;;;;;5069395;28;19939;-78
2021/01/24 05:09:42;;;;;;;;;;;;;;;;;;5041784;28;19924;-77
2021/01/24 05:12:08;;;;;;;;;;;;;;;;;;5048018;28;19944;-77
2021/01/24 05:14:34;;;;;;;;;;;;;;;;;;5047578;28;19924;-78
2021/01/24 05:17:00;;;;;;;;;;;;;;;;;;5046586;28;19935;-78
2021/01/24 05:19:26;;;;;;;;;;;;;;;;;;5048560;28;19925;-78
2021/01/24 05:21:52;;;;;;;;;;;;;;;;;;5045220;28;19925;-78
2021/01/24 05:24:18;;;;;;;;;;;;;;;;;;5053831;28;20364;-79
2021/01/24 05:26:44;;;;;;;;;;;;;;;;;;5065756;28;19925;-78
2021/01/24 05:29:10;;;;;;;;;;;;;;;;;;5067948;28;19936;-78
2021/01/24 05:31:36;;;;;;;;;;;;;;;;;;5067627;28;19947;-78
2021/01/24 05:34:02;;;;;;;;;;;;;;;;;;5066885;28;19982;-79
2021/01/24 05:36:28;;;;;;;;;;;;;;;;;;5068530;28;19932;-77
2021/01/24 05:38:54;;;;;;;;;;;;;;;;;;5054519;28;20474;-79
2021/01/24 05:41:20;;;;;;;;;;;;;;;;;;5068322;28;19929;-78
2021/01/24 05:43:46;;;;;;;;;;;;;;;;;;5064829;28;20373;-79
2021/01/24 05:46:12;;;;;;;;;;;;;;;;;;5068509;28;19932;-79
2021/01/24 05:48:38;;;;;;;;;;;;;;;;;;5066336;28;19943;-78
2021/01/24 05:51:04;;;;;;;;;;;;;;;;;;5067034;28;19943;-79
2021/01/24 05:53:30;;;;;;;;;;;;;;;;;;5067475;28;20296;-79
2021/01/24 05:55:56;;;;;;;;;;;;;;;;;;5054692;28;19931;-78
2021/01/24 05:58:22;;;;;;;;;;;;;;;;;;5068239;28;20316;-78
2021/01/24 06:00:48;;;;;;;;;;;;;;;;;;5064790;28;19924;-78
2021/01/24 06:03:14;;;;;;;;;;;;;;;;;;5067300;28;20431;-78
2021/01/24 06:05:40;;;;;;;;;;;;;;;;;;5066170;28;19932;-79
2021/01/24 06:08:06;;;;;;;;;;;;;;;;;;5066749;28;19931;-78
2021/01/24 06:10:32;;;;;;;;;;;;;;;;;;5064138;28;19926;-78
2021/01/24 06:12:58;;;;;;;;;;;;;;;;;;5058976;28;20777;-78
2021/01/24 06:15:24;;;;;;;;;;;;;;;;;;5067426;28;19924;-78
2021/01/24 06:17:50;;;;;;;;;;;;;;;;;;5048401;28;20710;-79
2021/01/24 06:20:16;;;;;;;;;;;;;;;;;;5047873;28;19925;-78
2021/01/24 06:22:42;;;;;;;;;;;;;;;;;;5044787;28;20381;-78
2021/01/24 06:25:08;;;;;;;;;;;;;;;;;;5046803;28;19924;-79
2021/01/24 06:27:37;;;;;;;;;;;;;;;;;;5047211;28;19946;-79
2021/01/24 06:30:03;;;;;;;;;;;;;;;;;;5065619;28;19931;-78
2021/01/24 06:32:29;;;;;;;;;;;;;;;;;;5067579;28;19924;-78
2021/01/24 06:34:55;;;;;;;;;;;;;;;;;;5064571;28;20421;-78
2021/01/24 06:37:23;;;;;;;;;;;;;;;;;;5065894;28;19928;-79
2021/01/24 06:39:49;;;;;;;;;;;;;;;;;;5063926;28;19924;-79
2021/01/24 06:42:15;;;;;;;;;;;;;;;;;;5053772;28;19992;-79
2021/01/24 06:44:41;;;;;;;;;;;;;;;;;;5044853;28;19925;-78
2021/01/24 06:47:07;;;;;;;;;;;;;;;;;;5045016;28;20101;-78
2021/01/24 06:49:33;;;;;;;;;;;;;;;;;;5046186;28;20282;-78
2021/01/24 06:51:59;;;;;;;;;;;;;;;;;;5045470;28;19929;-79
2021/01/24 06:54:25;;;;;;;;;;;;;;;;;;5047140;28;20271;-79
2021/01/24 06:56:51;;;;;;;;;;;;;;;;;;5035946;28;19948;-79
2021/01/24 06:59:17;;;;;;;;;;;;;;;;;;5047001;28;20301;-79
2021/01/24 07:01:43;;;;;;;;;;;;;;;;;;5046548;28;19924;-78
2021/01/24 07:04:09;;;;;;;;;;;;;;;;;;5046983;28;20289;-79
2021/01/24 07:06:35;;;;;;;;;;;;;;;;;;5044932;28;19932;-78
2021/01/24 07:09:01;;;;;;;;;;;;;;;;;;5045274;28;19925;-79
2021/01/24 07:11:27;;;;;;;;;;;;;;;;;;5046880;28;19947;-79
2021/01/24 07:13:53;;;;;;;;;;;;;;;;;;5044948;28;20023;-78
2021/01/24 07:16:19;;;;;;;;;;;;;;;;;;5067071;28;19924;-79
2021/01/24 07:18:45;;;;;;;;;;;;;;;;;;5064179;28;20361;-79
2021/01/24 07:21:11;;;;;;;;;;;;;;;;;;5066528;28;19931;-79
2021/01/24 07:23:37;;;;;;;;;;;;;;;;;;5064785;28;19932;-78
2021/01/24 07:26:03;;;;;;;;;;;;;;;;;;5065043;28;19924;-79
2021/01/24 07:28:29;;;;;;;;;;;;;;;;;;5065152;28;19963;-79
2021/01/24 07:30:55;;;;;;;;;;;;;;;;;;5038463;28;19933;-78
2021/01/24 07:33:21;;;;;;;;;;;;;;;;;;5046807;28;19928;-79
2021/01/24 07:35:47;;;;;;;;;;;;;;;;;;5050908;28;19925;-78
2021/01/24 07:38:12;;;;;;;;;;;;;;;;;;5066709;28;20320;-78
2021/01/24 07:40:38;;;;;;;;;;;;;;;;;;5065221;28;19928;-79
2021/01/24 07:43:04;;;;;;;;;;;;;;;;;;5065319;28;20314;-79
2021/01/24 07:45:30;;;;;;;;;;;;;;;;;;5055921;28;19978;-78
2021/01/24 07:47:56;;;;;;;;;;;;;;;;;;5062436;28;20309;-79
2021/01/24 07:50:22;;;;;;;;;;;;;;;;;;5066399;28;19924;-79
2021/01/24 07:52:51;;;;;;;;;;;;;;;;;;5062695;28;20442;-78
2021/01/24 07:55:17;;;;;;;;;;;;;;;;;;5066576;28;19925;-79
2021/01/24 07:57:43;;;;;;;;;;;;;;;;;;5063563;28;20439;-78
2021/01/24 08:00:08;;;;;;;;;;;;;;;;;;5065414;28;19925;-79
2021/01/24 08:02:34;;;;;;;;;;;;;;;;;;5047898;28;20321;-78
2021/01/24 08:05:00;;;;;;;;;;;;;;;;;;5066355;28;19932;-78
2021/01/24 08:07:26;;;;;;;;;;;;;;;;;;5056027;28;20366;-79
2021/01/24 08:09:52;;;;;;;;;;;;;;;;;;5043036;28;19925;-79
2021/01/24 08:12:19;;;;;;;;;;;;;;;;;;5061558;28;19928;-79
2021/01/24 08:14:45;;;;;;;;;;;;;;;;;;5063200;28;19924;-78
2021/01/24 08:17:11;;;;;;;;;;;;;;;;;;5043729;28;20478;-78
2021/01/24 08:19:37;;;;;;;;;;;;;;;;;;5048517;28;19925;-78
2021/01/24 08:22:03;;;;;;;;;;;;;;;;;;5048128;28;20496;-79
2021/01/24 08:24:29;;;;;;;;;;;;;;;;;;5049506;28;19925;-79
2021/01/24 08:26:55;;;;;;;;;;;;;;;;;;5046987;28;19928;-79
2021/01/24 08:29:21;;;;;;;;;;;;;;;;;;5049660;28;19935;-79
2021/01/24 08:31:46;;;;;;;;;;;;;;;;;;5039033;28;19929;-78
2021/01/24 08:34:14;;;;;;;;;;;;;;;;;;5069007;28;19931;-79
2021/01/24 08:36:40;;;;;;;;;;;;;;;;;;5067561;28;19997;-78
2021/01/24 08:39:06;;;;;;;;;;;;;;;;;;5062272;28;20589;-79
2021/01/24 08:41:32;;;;;;;;;;;;;;;;;;5053610;28;19931;-78
2021/01/24 08:43:58;;;;;;;;;;;;;;;;;;5065589;28;20433;-79
2021/01/24 08:46:24;;;;;;;;;;;;;;;;;;5052115;28;19925;-79
2021/01/24 08:48:50;;;;;;;;;;;;;;;;;;5055142;28;19925;-79
2021/01/24 08:51:16;;;;;;;;;;;;;;;;;;5069368;28;19928;-79
2021/01/24 08:53:42;;;;;;;;;;;;;;;;;;5067266;28;19974;-79
2021/01/24 08:56:08;;;;;;;;;;;;;;;;;;5068702;28;19935;-79
2021/01/24 08:58:33;;;;;;;;;;;;;;;;;;5068600;28;19932;-79
2021/01/24 09:00:59;;;;;;;;;;;;;;;;;;5068265;28;19985;-79
2021/01/24 09:03:25;;;;;;;;;;;;;;;;;;5059723;28;20278;-80
2021/01/24 09:05:51;;;;;;;;;;;;;;;;;;5066939;28;19924;-79
2021/01/24 09:08:17;;;;;;;;;;;;;;;;;;5073318;28;19924;-79
2021/01/24 09:10:43;;;;;;;;;;;;;;;;;;5069040;28;19928;-79
2021/01/24 09:13:09;;;;;;;;;;;;;;;;;;5068663;28;20399;-79
2021/01/24 09:15:35;;;;;;;;;;;;;;;;;;5067882;28;19931;-79
2021/01/24 09:18:01;;;;;;;;;;;;;;;;;;5066689;28;19928;-80
2021/01/24 09:20:27;;;;;;;;;;;;;;;;;;5048442;28;19925;-80
2021/01/24 09:22:53;;;;;;;;;;;;;;;;;;5046578;28;19925;-80
2021/01/24 09:25:19;;;;;;;;;;;;;;;;;;5049232;28;19971;-79
2021/01/24 09:27:45;;;;;;;;;;;;;;;;;;5046769;28;19925;-79
2021/01/24 09:30:10;;;;;;;;;;;;;;;;;;5047470;28;20290;-80
2021/01/24 09:32:36;;;;;;;;;;;;;;;;;;5051681;28;19924;-79
2021/01/24 09:35:02;;;;;;;;;;;;;;;;;;5056630;28;20293;-79
2021/01/24 09:37:28;;;;;;;;;;;;;;;;;;5069360;28;19932;-79
2021/01/24 09:39:54;;;;;;;;;;;;;;;;;;5066538;28;19936;-80
2021/01/24 09:42:20;;;;;;;;;;;;;;;;;;5069218;28;19936;-79
2021/01/24 09:44:46;;;;;;;;;;;;;;;;;;5066078;28;20434;-80
2021/01/24 09:47:12;;;;;;;;;;;;;;;;;;5064278;28;19939;-79
2021/01/24 09:49:38;;;;;;;;;;;;;;;;;;5043335;28;19948;-79
2021/01/24 09:52:04;;;;;;;;;;;;;;;;;;5045631;28;19925;-80
2021/01/24 09:54:30;;;;;;;;;;;;;;;;;;5051143;28;19925;-79
2021/01/24 09:56:56;;;;;;;;;;;;;;;;;;5046448;28;19925;-79
2021/01/24 09:59:22;;;;;;;;;;;;;;;;;;5048956;28;20298;-80
2021/01/24 10:01:48;;;;;;;;;;;;;;;;;;5045745;28;19925;-79
2021/01/24 10:04:14;;;;;;;;;;;;;;;;;;5048432;28;20378;-80
2021/01/24 10:06:40;;;;;;;;;;;;;;;;;;5054025;28;19928;-79
2021/01/24 10:09:06;;;;;;;;;;;;;;;;;;5066954;28;20368;-80
2021/01/24 10:11:32;;;;;;;;;;;;;;;;;;5067950;28;19929;-79
2021/01/24 10:13:57;;;;;;;;;;;;;;;;;;5065958;28;20286;-79
2021/01/24 10:16:23;;;;;;;;;;;;;;;;;;5068307;28;19925;-80
2021/01/24 10:18:49;;;;;;;;;;;;;;;;;;5065314;28;19924;-80
2021/01/24 10:21:15;;;;;;;;;;;;;;;;;;5059937;28;19946;-80
2021/01/24 10:23:41;;;;;;;;;;;;;;;;;;5066778;28;19925;-80
2021/01/24 10:26:07;;;;;;;;;;;;;;;;;;5068738;28;19924;-80
2021/01/24 10:28:33;;;;;;;;;;;;;;;;;;5068495;28;20017;-80
2021/01/24 10:30:59;;;;;;;;;;;;;;;;;;5067626;28;19931;-80
2021/01/24 10:33:25;;;;;;;;;;;;;;;;;;5069095;28;19925;-80
2021/01/24 10:35:51;;;;;;;;;;;;;;;;;;5056160;28;19932;-80
2021/01/24 10:38:17;;;;;;;;;;;;;;;;;;5050542;28;19925;-80
2021/01/24 10:40:43;;;;;;;;;;;;;;;;;;5061256;28;19924;-80
2021/01/24 10:43:09;;;;;;;;;;;;;;;;;;5072614;28;19924;-79
2021/01/24 10:45:35;;;;;;;;;;;;;;;;;;5077133;28;19932;-80
2021/01/24 10:48:01;;;;;;;;;;;;;;;;;;5061980;28;19932;-80
2021/01/24 10:50:27;;;;;;;;;;;;;;;;;;5064042;28;20374;-79
2021/01/24 10:52:53;;;;;;;;;;;;;;;;;;5054127;28;19925;-79
2021/01/24 10:55:19;;;;;;;;;;;;;;;;;;5062653;28;19925;-78
2021/01/24 10:57:45;;;;;;;;;;;;;;;;;;5060650;28;19947;-78
2021/01/24 11:00:11;;;;;;;;;;;;;;;;;;5055176;28;20388;-78
2021/01/24 11:02:37;;;;;;;;;;;;;;;;;;5049447;28;19932;-77
2021/01/24 11:05:03;;;;;;;;;;;;;;;;;;5049886;28;19978;-78
2021/01/24 11:07:29;;;;;;;;;;;;;;;;;;5052538;28;19924;-78
2021/01/24 11:09:55;;;;;;;;;;;;;;;;;;5068221;28;19968;-79
2021/01/24 11:12:22;;;;;;;;;;;;;;;;;;5071563;28;19928;-78
2021/01/24 11:14:48;;;;;;;;;;;;;;;;;;5068923;28;19929;-79
2021/01/24 11:17:14;;;;;;;;;;;;;;;;;;5075463;28;19978;-78
2021/01/24 11:19:40;;;;;;;;;;;;;;;;;;5070996;28;19932;-77
2021/01/24 11:22:06;;;;;;;;;;;;;;;;;;5059993;28;19928;-78
2021/01/24 11:24:32;;;;;;;;;;;;;;;;;;5049028;28;19925;-78
2021/01/24 11:26:58;;;;;;;;;;;;;;;;;;5046438;28;19925;-78
2021/01/24 11:29:24;;;;;;;;;;;;;;;;;;5049154;28;19925;-79
2021/01/24 11:31:50;;;;;;;;;;;;;;;;;;5065801;28;20049;-79
2021/01/24 11:34:16;;;;;;;;;;;;;;;;;;5068071;28;20423;-79
2021/01/24 11:36:42;;;;;;;;;;;;;;;;;;5065598;28;20022;-79
2021/01/24 11:39:08;;;;;;;;;;;;;;;;;;5048605;28;19951;-80
2021/01/24 11:41:34;;;;;;;;;;;;;;;;;;5047284;28;19925;-79
2021/01/24 11:44:00;;;;;;;;;;;;;;;;;;5046672;28;20278;-79
2021/01/24 11:46:26;;;;;;;;;;;;;;;;;;5048281;28;19940;-79
2021/01/24 11:48:52;;;;;;;;;;;;;;;;;;5044734;28;19925;-79
2021/01/24 11:51:18;;;;;;;;;;;;;;;;;;5048358;28;19931;-79
2021/01/24 11:53:44;;;;;;;;;;;;;;;;;;5044343;28;19925;-78
2021/01/24 11:56:10;;;;;;;;;;;;;;;;;;5056130;28;19925;-80
2021/01/24 11:58:36;;;;;;;;;;;;;;;;;;5051209;28;19925;-79
2021/01/24 12:01:02;;;;;;;;;;;;;;;;;;5051057;28;19932;-79
2021/01/24 12:03:28;;;;;;;;;;;;;;;;;;5052230;28;19931;-79
2021/01/24 12:05:54;;;;;;;;;;;;;;;;;;5049197;28;19932;-79
2021/01/24 12:08:20;;;;;;;;;;;;;;;;;;5054831;28;19971;-79
2021/01/24 12:10:46;;;;;;;;;;;;;;;;;;5043052;28;19931;-78
2021/01/24 12:13:12;;;;;;;;;;;;;;;;;;5054520;28;20285;-79
2021/01/24 12:15:38;;;;;;;;;;;;;;;;;;5053019;28;19932;-80
2021/01/24 12:18:04;;;;;;;;;;;;;;;;;;5051737;28;20366;-79
2021/01/24 12:20:30;;;;;;;;;;;;;;;;;;5053050;28;19961;-79
2021/01/24 12:22:56;;;;;;;;;;;;;;;;;;5049650;28;19931;-80
2021/01/24 12:25:22;;;;;;;;;;;;;;;;;;5045615;28;19925;-80
2021/01/24 12:27:48;;;;;;;;;;;;;;;;;;5068248;28;19925;-80
2021/01/24 12:30:14;;;;;;;;;;;;;;;;;;5075417;28;19924;-81
2021/01/24 12:32:40;;;;;;;;;;;;;;;;;;5072706;28;19925;-80
2021/01/24 12:35:06;;;;;;;;;;;;;;;;;;5071060;28;19924;-80
2021/01/24 12:37:32;;;;;;;;;;;;;;;;;;5070316;28;19925;-80
2021/01/24 12:39:58;;;;;;;;;;;;;;;;;;5069983;28;19924;-80
2021/01/24 12:42:24;;;;;;;;;;;;;;;;;;5060822;28;20281;-80
2021/01/24 12:44:50;;;;;;;;;;;;;;;;;;5066940;28;19924;-79
2021/01/24 12:47:16;;;;;;;;;;;;;;;;;;5070574;28;19924;-80
2021/01/24 12:49:42;;;;;;;;;;;;;;;;;;5068255;28;19931;-80
2021/01/24 12:52:08;;;;;;;;;;;;;;;;;;5070163;28;19929;-81
2021/01/24 12:54:34;;;;;;;;;;;;;;;;;;5069693;28;20304;-80
2021/01/24 12:57:00;;;;;;;;;;;;;;;;;;5058662;28;20034;-80
2021/01/24 12:59:26;;;;;;;;;;;;;;;;;;5071041;28;20325;-80
2021/01/24 13:01:52;;;;;;;;;;;;;;;;;;5067993;28;19924;-80
2021/01/24 13:04:18;;;;;;;;;;;;;;;;;;5069180;28;20036;-80
2021/01/24 13:06:44;;;;;;;;;;;;;;;;;;5067170;28;20389;-80
2021/01/24 13:09:09;;;;;;;;;;;;;;;;;;5069913;28;19931;-80
2021/01/24 13:11:35;;;;;;;;;;;;;;;;;;5064633;28;20332;-78
2021/01/24 13:14:01;;;;;;;;;;;;;;;;;;5051275;28;19936;-79
2021/01/24 13:16:27;;;;;;;;;;;;;;;;;;5050316;28;20066;-79
2021/01/24 13:18:53;;;;;;;;;;;;;;;;;;5046685;28;19931;-80
2021/01/24 13:21:19;;;;;;;;;;;;;;;;;;5049978;28;20337;-80
2021/01/24 13:23:45;;;;;;;;;;;;;;;;;;5046644;28;19932;-79
2021/01/24 13:26:11;;;;;;;;;;;;;;;;;;5049915;28;20386;-79
2021/01/24 13:28:37;;;;;;;;;;;;;;;;;;5053798;28;19931;-78
2021/01/24 13:31:03;;;;;;;;;;;;;;;;;;5067054;28;19925;-79
2021/01/24 13:33:29;;;;;;;;;;;;;;;;;;5068613;28;19924;-79
2021/01/24 13:35:55;;;;;;;;;;;;;;;;;;5066749;28;19932;-79
2021/01/24 13:38:21;;;;;;;;;;;;;;;;;;5070308;28;19932;-79
2021/01/24 13:40:46;;;;;;;;;;;;;;;;;;5066171;28;20475;-79
2021/01/24 13:43:12;;;;;;;;;;;;;;;;;;5049439;28;19925;-80
2021/01/24 13:45:38;;;;;;;;;;;;;;;;;;5048197;28;19929;-79
2021/01/24 13:48:04;;;;;;;;;;;;;;;;;;5047970;28;19924;-79
2021/01/24 13:50:30;;;;;;;;;;;;;;;;;;5049573;28;19925;-79
2021/01/24 13:52:56;;;;;;;;;;;;;;;;;;5046824;28;19925;-79
2021/01/24 13:55:22;;;;;;;;;;;;;;;;;;5050177;28;19983;-80
2021/01/24 13:57:48;;;;;;;;;;;;;;;;;;5045617;28;20125;-82
2021/01/24 14:00:14;;;;;;;;;;;;;;;;;;5049842;28;19932;-80
2021/01/24 14:02:40;;;;;;;;;;;;;;;;;;5047966;28;19925;-80
2021/01/24 14:05:06;;;;;;;;;;;;;;;;;;5049314;28;19925;-78
2021/01/24 14:07:32;;;;;;;;;;;;;;;;;;5048795;28;19986;-78
2021/01/24 14:09:58;;;;;;;;;;;;;;;;;;5051703;28;19951;-79
2021/01/24 14:12:24;;;;;;;;;;;;;;;;;;5048949;28;20297;-79
2021/01/24 14:14:50;;;;;;;;;;;;;;;;;;5037227;28;19925;-80
2021/01/24 14:17:16;;;;;;;;;;;;;;;;;;5050188;28;19925;-80
2021/01/24 14:19:42;;;;;;;;;;;;;;;;;;5047542;28;19924;-80
2021/01/24 14:22:08;;;;;;;;;;;;;;;;;;5048222;28;20370;-79
2021/01/24 14:24:34;;;;;;;;;;;;;;;;;;5047987;28;19924;-79
2021/01/24 14:27:00;;;;;;;;;;;;;;;;;;5064056;28;19931;-80
2021/01/24 14:29:26;;;;;;;;;;;;;;;;;;5045305;28;20333;-79
2021/01/24 14:31:52;;;;;;;;;;;;;;;;;;5046102;28;19924;-81
2021/01/24 14:34:18;;;;;;;;;;;;;;;;;;5049378;28;19948;-80
2021/01/24 14:36:44;;;;;;;;;;;;;;;;;;5045857;28;19974;-78
2021/01/24 14:39:10;;;;;;;;;;;;;;;;;;5048627;28;20296;-79
2021/01/24 14:41:36;;;;;;;;;;;;;;;;;;5047767;28;19939;-79
2021/01/24 14:44:02;;;;;;;;;;;;;;;;;;5040119;28;20738;-79
2021/01/24 14:46:28;;;;;;;;;;;;;;;;;;5048630;28;19924;-80
2021/01/24 14:48:54;;;;;;;;;;;;;;;;;;5045404;28;19932;-79
2021/01/24 14:51:21;;;;;;;;;;;;;;;;;;5048056;28;20317;-81
2021/01/24 14:53:47;;;;;;;;;;;;;;;;;;5044448;28;19925;-79
2021/01/24 14:56:13;;;;;;;;;;;;;;;;;;5047727;28;19960;-79
2021/01/24 14:58:39;;;;;;;;;;;;;;;;;;5040417;28;19925;-80
2021/01/24 15:01:05;;;;;;;;;;;;;;;;;;5063003;28;19928;-79
2021/01/24 15:03:31;;;;;;;;;;;;;;;;;;5067280;28;20014;-80
2021/01/24 15:05:57;;;;;;;;;;;;;;;;;;5064960;28;19947;-80
2021/01/24 15:08:23;;;;;;;;;;;;;;;;;;5068352;28;19924;-80
2021/01/24 15:10:49;;;;;;;;;;;;;;;;;;5063993;28;19928;-79
2021/01/24 15:13:15;;;;;;;;;;;;;;;;;;5067003;28;19925;-79
2021/01/24 15:15:41;;;;;;;;;;;;;;;;;;5038420;28;19933;-79
2021/01/24 15:18:08;;;;;;;;;;;;;;;;;;5046185;28;19928;-79
2021/01/24 15:20:34;;;;;;;;;;;;;;;;;;5046397;28;19939;-78
2021/01/24 15:23:00;;;;;;;;;;;;;;;;;;5044752;28;19928;-80
2021/01/24 15:25:26;;;;;;;;;;;;;;;;;;5061139;28;19974;-79
2021/01/24 15:27:52;;;;;;;;;;;;;;;;;;5062200;28;19931;-78
2021/01/24 15:30:18;;;;;;;;;;;;;;;;;;5051798;28;19925;-79
2021/01/24 15:32:44;;;;;;;;;;;;;;;;;;5043725;28;19925;-79
2021/01/24 15:35:10;;;;;;;;;;;;;;;;;;5046244;28;19925;-79
2021/01/24 15:37:36;;;;;;;;;;;;;;;;;;5045292;28;19932;-77
2021/01/24 15:40:02;;;;;;;;;;;;;;;;;;5044788;28;19997;-79
2021/01/24 15:42:28;;;;;;;;;;;;;;;;;;5047254;28;19932;-78
2021/01/24 15:44:54;;;;;;;;;;;;;;;;;;5036428;28;19940;-78
2021/01/24 15:47:20;;;;;;;;;;;;;;;;;;5046744;28;19925;-76
2021/01/24 15:49:46;;;;;;;;;;;;;;;;;;5043296;28;19924;-79
2021/01/24 15:52:11;;;;;;;;;;;;;;;;;;5046119;28;20004;-78
2021/01/24 15:54:37;;;;;;;;;;;;;;;;;;5051609;28;19925;-78
2021/01/24 15:57:03;;;;;;;;;;;;;;;;;;5063133;28;19924;-77
2021/01/24 15:59:29;;;;;;;;;;;;;;;;;;5065363;28;19933;-77
2021/01/24 16:01:56;;;;;;;;;;;;;;;;;;5037212;28;20389;-76
2021/01/24 16:04:22;;;;;;;;;;;;;;;;;;5046664;28;20378;-77
2021/01/24 16:06:49;;;;;;;;;;;;;;;;;;5043275;28;19932;-78
2021/01/24 16:09:14;;;;;;;;;;;;;;;;;;5046434;28;20389;-78
2021/01/24 16:11:40;;;;;;;;;;;;;;;;;;5044496;28;19925;-79
2021/01/24 16:14:06;;;;;;;;;;;;;;;;;;5046050;28;19925;-78
2021/01/24 16:16:32;;;;;;;;;;;;;;;;;;5037534;28;19931;-79
2021/01/24 16:18:58;;;;;;;;;;;;;;;;;;5044106;28;19925;-79
2021/01/24 16:21:24;;;;;;;;;;;;;;;;;;5046529;28;19928;-77
2021/01/24 16:23:50;;;;;;;;;;;;;;;;;;5055637;28;20348;-77
2021/01/24 16:26:16;;;;;;;;;;;;;;;;;;5066430;28;19925;-78
2021/01/24 16:28:42;;;;;;;;;;;;;;;;;;5063617;28;20369;-78
2021/01/24 16:31:08;;;;;;;;;;;;;;;;;;5065623;28;19928;-78
2021/01/24 16:33:35;;;;;;;;;;;;;;;;;;5053479;28;20298;-77
2021/01/24 16:36:01;;;;;;;;;;;;;;;;;;5064175;28;19978;-77